createdAt,value
2022-08-01T00:00:09.872Z,100.00
2022-08-01T00:02:40.979Z,100.00
2022-08-01T00:05:09.572Z,100.00
2022-08-01T00:07:36.580Z,100.00
2022-08-01T00:10:08.831Z,100.00
2022-08-01T00:12:35.886Z,100.00
2022-08-01T00:15:02.890Z,100.00
2022-08-01T00:17:29.637Z,100.00
2022-08-01T00:19:56.419Z,100.00
2022-08-01T00:22:23.389Z,100.00
2022-08-01T00:24:50.638Z,100.00
2022-08-01T00:27:17.387Z,100.00
2022-08-01T00:30:12.270Z,100.00
2022-08-01T00:32:32.455Z,100.00
2022-08-01T00:34:59.424Z,100.00
2022-08-01T00:37:26.246Z,100.00
2022-08-01T00:39:53.007Z,100.00
2022-08-01T00:42:19.735Z,100.00
2022-08-01T00:44:46.480Z,100.00
2022-08-01T00:47:13.295Z,100.00
2022-08-01T00:49:40.359Z,100.00
2022-08-01T00:52:09.551Z,100.00
2022-08-01T00:54:36.889Z,100.00
2022-08-01T00:57:04.876Z,100.00
2022-08-01T00:59:37.678Z,100.00
2022-08-01T01:02:14.503Z,100.00
2022-08-01T01:04:42.052Z,100.00
2022-08-01T01:07:25.592Z,100.00
2022-08-01T01:10:15.476Z,100.00
2022-08-01T01:12:42.805Z,100.00
2022-08-01T01:15:31.802Z,100.00
2022-08-01T01:18:10.625Z,100.00
2022-08-01T01:20:42.204Z,100.00
2022-08-01T01:23:12.113Z,100.00
2022-08-01T01:25:38.838Z,100.00
2022-08-01T01:28:23.999Z,100.00
2022-08-01T01:30:54.455Z,100.00
2022-08-01T01:33:24.986Z,100.00
2022-08-01T01:35:57.789Z,100.00
2022-08-01T01:38:30.275Z,100.00
2022-08-01T01:40:59.905Z,100.00
2022-08-01T01:43:29.090Z,100.00
2022-08-01T01:46:01.672Z,100.00
2022-08-01T01:48:29.812Z,100.00
2022-08-01T01:50:57.816Z,100.00
2022-08-01T01:53:25.988Z,100.00
2022-08-01T01:55:56.412Z,100.00
2022-08-01T01:58:24.442Z,100.00
2022-08-01T02:00:53.959Z,100.00
2022-08-01T02:03:22.751Z,100.00
2022-08-01T02:05:51.958Z,100.00
2022-08-01T02:08:19.165Z,100.00
2022-08-01T02:11:07.492Z,100.00
2022-08-01T02:13:37.446Z,100.00
2022-08-01T02:16:04.907Z,100.00
2022-08-01T02:18:32.436Z,100.00
2022-08-01T02:21:01.311Z,100.00
2022-08-01T02:23:35.325Z,100.00
2022-08-01T02:26:10.748Z,100.00
2022-08-01T02:28:57.606Z,100.00
2022-08-01T02:31:24.760Z,100.00
2022-08-01T02:34:03.246Z,100.00
2022-08-01T02:36:33.999Z,100.00
2022-08-01T02:39:09.604Z,100.00
2022-08-01T02:41:41.863Z,100.00
2022-08-01T02:44:10.523Z,100.00
2022-08-01T02:46:44.516Z,100.00
2022-08-01T02:49:14.066Z,100.00
2022-08-01T02:51:43.613Z,100.00
2022-08-01T02:54:12.587Z,100.00
2022-08-01T02:56:41.811Z,100.00
2022-08-01T02:59:13.688Z,100.00
2022-08-01T03:01:44.261Z,100.00
2022-08-01T03:04:11.781Z,100.00
2022-08-01T03:06:39.913Z,100.00
2022-08-01T03:09:09.668Z,100.00
2022-08-01T03:11:38.542Z,100.00
2022-08-01T03:14:10.161Z,100.00
2022-08-01T03:16:39.783Z,100.00
2022-08-01T03:19:09.639Z,100.00
2022-08-01T03:21:38.277Z,100.00
2022-08-01T03:24:07.386Z,100.00
2022-08-01T03:26:37.218Z,100.00
2022-08-01T03:29:11.812Z,100.00
2022-08-01T03:31:40.708Z,100.00
2022-08-01T03:34:07.927Z,100.00
2022-08-01T03:36:44.031Z,100.00
2022-08-01T03:39:13.678Z,100.00
2022-08-01T03:41:44.800Z,100.00
2022-08-01T03:44:16.705Z,100.00
2022-08-01T03:46:47.648Z,100.00
2022-08-01T03:49:23.963Z,100.00
2022-08-01T03:51:52.445Z,100.00
2022-08-01T03:54:31.640Z,100.00
2022-08-01T03:56:59.413Z,100.00
2022-08-01T03:59:27.197Z,100.00
2022-08-01T04:01:56.353Z,100.00
2022-08-01T04:04:23.718Z,100.00
2022-08-01T04:06:55.190Z,100.00
2022-08-01T04:09:22.981Z,100.00
2022-08-01T04:12:08.804Z,100.00
2022-08-01T04:14:39.522Z,100.00
2022-08-01T04:17:06.318Z,100.00
2022-08-01T04:19:33.182Z,100.00
2022-08-01T04:22:00.762Z,100.00
2022-08-01T04:24:31.138Z,100.00
2022-08-01T04:27:01.470Z,100.00
2022-08-01T04:29:30.414Z,100.00
2022-08-01T04:32:01.050Z,100.00
2022-08-01T04:34:31.793Z,100.00
2022-08-01T04:36:59.588Z,100.00
2022-08-01T04:39:29.156Z,100.00
2022-08-01T04:41:59.441Z,100.00
2022-08-01T04:44:32.340Z,100.00
2022-08-01T04:47:04.749Z,100.00
2022-08-01T04:49:49.067Z,100.00
2022-08-01T04:52:24.339Z,100.00
2022-08-01T04:54:51.690Z,100.00
2022-08-01T04:57:18.563Z,100.00
2022-08-01T04:59:45.408Z,100.00
2022-08-01T05:02:14.953Z,100.00
2022-08-01T05:04:43.395Z,100.00
2022-08-01T05:07:11.849Z,100.00
2022-08-01T05:09:39.919Z,100.00
2022-08-01T05:12:07.820Z,100.00
2022-08-01T05:14:36.047Z,100.00
2022-08-01T05:17:06.028Z,100.00
2022-08-01T05:19:37.952Z,100.00
2022-08-01T05:22:07.418Z,100.00
2022-08-01T05:24:40.207Z,99.12
2022-08-01T05:27:09.024Z,97.83
2022-08-01T05:29:44.241Z,96.52
2022-08-01T05:32:11.823Z,96.49
2022-08-01T05:34:38.738Z,94.81
2022-08-01T05:37:05.662Z,94.99
2022-08-01T05:39:32.432Z,93.85
2022-08-01T05:41:59.594Z,94.60
2022-08-01T05:44:26.570Z,89.55
2022-08-01T05:46:53.705Z,91.11
2022-08-01T05:49:20.648Z,90.81
2022-08-01T05:51:47.682Z,90.93
2022-08-01T05:54:14.609Z,90.79
2022-08-01T05:56:41.559Z,87.28
2022-08-01T05:59:08.482Z,86.61
2022-08-01T06:01:35.851Z,87.52
2022-08-01T06:04:02.873Z,88.31
2022-08-01T06:06:29.853Z,86.89
2022-08-01T06:08:56.676Z,86.75
2022-08-01T06:11:23.686Z,87.18
2022-08-01T06:13:50.583Z,86.53
2022-08-01T06:16:17.770Z,86.48
2022-08-01T06:18:44.720Z,85.72
2022-08-01T06:21:11.654Z,83.17
2022-08-01T06:23:38.532Z,78.90
2022-08-01T06:26:05.461Z,78.40
2022-08-01T06:28:32.564Z,74.50
2022-08-01T06:31:00.713Z,73.33
2022-08-01T06:33:28.463Z,72.75
2022-08-01T06:35:55.518Z,69.47
2022-08-01T06:38:22.693Z,69.20
2022-08-01T06:40:49.745Z,69.27
2022-08-01T06:43:17.892Z,67.34
2022-08-01T06:45:45.283Z,66.33
2022-08-01T06:48:12.344Z,66.49
2022-08-01T06:50:39.509Z,64.72
2022-08-01T06:53:06.878Z,66.03
2022-08-01T06:55:33.833Z,65.33
2022-08-01T06:58:00.694Z,67.27
2022-08-01T07:00:28.126Z,63.51
2022-08-01T07:02:57.902Z,62.79
2022-08-01T07:05:25.292Z,64.26
2022-08-01T07:07:52.208Z,63.90
2022-08-01T07:10:19.501Z,62.60
2022-08-01T07:12:46.324Z,63.77
2022-08-01T07:15:13.276Z,61.97
2022-08-01T07:17:43.018Z,61.71
2022-08-01T07:20:12.385Z,61.08
2022-08-01T07:22:47.541Z,58.75
2022-08-01T07:25:18.704Z,57.96
2022-08-01T07:27:45.784Z,57.49
2022-08-01T07:30:12.986Z,58.32
2022-08-01T07:32:39.827Z,57.01
2022-08-01T07:35:07.156Z,57.34
2022-08-01T07:37:45.332Z,55.80
2022-08-01T07:40:18.751Z,54.89
2022-08-01T07:42:46.451Z,54.45
2022-08-01T07:45:13.833Z,55.17
2022-08-01T07:47:40.619Z,52.81
2022-08-01T07:50:08.298Z,53.68
2022-08-01T07:52:35.104Z,53.94
2022-08-01T07:55:02.034Z,54.46
2022-08-01T07:57:28.838Z,54.43
2022-08-01T07:59:55.767Z,53.63
2022-08-01T08:02:22.623Z,52.66
2022-08-01T08:04:49.520Z,54.23
2022-08-01T08:07:16.732Z,51.34
2022-08-01T08:09:43.703Z,52.22
2022-08-01T08:12:11.149Z,50.49
2022-08-01T08:14:38.829Z,51.17
2022-08-01T08:17:06.601Z,52.48
2022-08-01T08:19:37.975Z,50.99
2022-08-01T08:22:07.771Z,50.37
2022-08-01T08:24:35.798Z,51.14
2022-08-01T08:27:02.821Z,49.81
2022-08-01T08:29:32.863Z,50.85
2022-08-01T08:32:00.714Z,49.88
2022-08-01T08:34:29.565Z,48.56
2022-08-01T08:36:58.857Z,49.09
2022-08-01T08:39:26.800Z,47.42
2022-08-01T08:41:53.690Z,47.50
2022-08-01T08:44:23.352Z,47.30
2022-08-01T08:46:53.238Z,47.26
2022-08-01T08:49:23.352Z,46.91
2022-08-01T08:51:52.739Z,46.39
2022-08-01T08:54:24.106Z,45.12
2022-08-01T08:56:59.808Z,46.25
2022-08-01T08:59:27.372Z,45.50
2022-08-01T09:01:54.227Z,46.25
2022-08-01T09:04:26.034Z,44.90
2022-08-01T09:06:54.746Z,45.45
2022-08-01T09:09:22.235Z,45.00
2022-08-01T09:11:56.927Z,45.83
2022-08-01T09:14:26.441Z,43.78
2022-08-01T09:17:13.900Z,44.04
2022-08-01T09:19:54.548Z,43.59
2022-08-01T09:22:26.255Z,43.28
2022-08-01T09:25:05.981Z,42.69
2022-08-01T09:27:34.624Z,43.07
2022-08-01T09:30:17.175Z,43.47
2022-08-01T09:33:11.403Z,42.58
2022-08-01T09:35:46.501Z,41.26
2022-08-01T09:38:20.690Z,42.10
2022-08-01T09:40:53.543Z,42.49
2022-08-01T09:43:22.053Z,42.70
2022-08-01T09:45:50.424Z,41.13
2022-08-01T09:48:18.671Z,41.21
2022-08-01T09:50:48.518Z,39.57
2022-08-01T09:53:30.169Z,39.47
2022-08-01T09:56:12.860Z,40.15
2022-08-01T09:59:02.383Z,39.34
2022-08-01T10:01:50.840Z,40.57
2022-08-01T10:04:21.325Z,41.11
2022-08-01T10:06:53.746Z,40.33
2022-08-01T10:09:40.197Z,41.23
2022-08-01T10:12:09.157Z,41.57
2022-08-01T10:14:46.026Z,39.58
2022-08-01T10:17:18.342Z,39.48
2022-08-01T10:19:45.983Z,38.58
2022-08-01T10:22:17.568Z,38.30
2022-08-01T10:24:48.242Z,37.94
2022-08-01T10:27:24.299Z,37.98
2022-08-01T10:30:19.285Z,37.85
2022-08-01T10:32:51.009Z,38.76
2022-08-01T10:35:24.066Z,38.86
2022-08-01T10:38:06.440Z,39.81
2022-08-01T10:40:38.731Z,39.84
2022-08-01T10:43:07.678Z,40.10
2022-08-01T10:45:35.311Z,38.87
2022-08-01T10:48:11.029Z,38.35
2022-08-01T10:50:53.360Z,38.51
2022-08-01T10:53:31.199Z,37.13
2022-08-01T10:56:13.254Z,37.30
2022-08-01T10:58:46.988Z,36.76
2022-08-01T11:01:27.935Z,37.43
2022-08-01T11:04:13.962Z,37.82
2022-08-01T11:07:04.371Z,37.32
2022-08-01T11:09:40.530Z,38.99
2022-08-01T11:12:23.569Z,38.10
2022-08-01T11:15:03.001Z,38.29
2022-08-01T11:17:38.364Z,37.46
2022-08-01T11:20:13.745Z,37.81
2022-08-01T11:23:02.463Z,37.73
2022-08-01T11:26:05.284Z,37.83
2022-08-01T11:28:33.261Z,37.23
2022-08-01T11:31:11.249Z,37.97
2022-08-01T11:33:46.879Z,36.66
2022-08-01T11:36:48.755Z,36.30
2022-08-01T11:39:13.163Z,38.30
2022-08-01T11:41:40.596Z,37.44
2022-08-01T11:44:19.121Z,38.39
2022-08-01T11:46:53.465Z,38.32
2022-08-01T11:50:00.469Z,35.60
2022-08-01T11:52:30.953Z,36.65
2022-08-01T11:55:10.017Z,38.05
2022-08-01T11:57:39.154Z,37.86
2022-08-01T12:00:26.684Z,36.58
2022-08-01T12:03:05.341Z,36.39
2022-08-01T12:05:35.409Z,36.63
2022-08-01T12:08:02.686Z,36.95
2022-08-01T12:10:49.688Z,36.70
2022-08-01T12:13:19.123Z,36.68
2022-08-01T12:15:47.362Z,37.27
2022-08-01T12:18:15.007Z,36.58
2022-08-01T12:20:56.017Z,35.75
2022-08-01T12:23:23.718Z,34.79
2022-08-01T12:25:54.286Z,35.65
2022-08-01T12:28:21.179Z,35.51
2022-08-01T12:30:49.920Z,36.75
2022-08-01T12:33:20.042Z,36.52
2022-08-01T12:35:47.766Z,36.37
2022-08-01T12:38:20.892Z,36.04
2022-08-01T12:40:51.688Z,34.72
2022-08-01T12:43:28.695Z,35.25
2022-08-01T12:45:59.777Z,35.97
2022-08-01T12:48:28.059Z,34.99
2022-08-01T12:50:59.155Z,35.50
2022-08-01T12:53:39.764Z,34.07
2022-08-01T12:56:10.697Z,34.78
2022-08-01T12:58:38.196Z,35.04
2022-08-01T13:01:13.152Z,34.65
2022-08-01T13:03:40.594Z,34.77
2022-08-01T13:06:13.942Z,35.65
2022-08-01T13:08:40.988Z,35.86
2022-08-01T13:11:17.818Z,35.33
2022-08-01T13:13:48.762Z,35.21
2022-08-01T13:16:31.162Z,34.40
2022-08-01T13:19:07.562Z,33.20
2022-08-01T13:21:54.229Z,34.62
2022-08-01T13:24:26.979Z,34.54
2022-08-01T13:26:58.661Z,35.36
2022-08-01T13:29:34.380Z,34.40
2022-08-01T13:32:29.813Z,33.89
2022-08-01T13:35:09.348Z,34.28
2022-08-01T13:37:38.434Z,33.64
2022-08-01T13:40:10.114Z,34.91
2022-08-01T13:42:37.389Z,32.62
2022-08-01T13:45:14.165Z,32.33
2022-08-01T13:48:03.224Z,33.52
2022-08-01T13:50:31.734Z,33.84
2022-08-01T13:52:58.626Z,32.89
2022-08-01T13:55:25.554Z,31.96
2022-08-01T13:57:52.495Z,31.86
2022-08-01T14:00:19.269Z,33.33
2022-08-01T14:02:46.063Z,32.98
2022-08-01T14:05:12.931Z,33.27
2022-08-01T14:07:41.386Z,33.17
2022-08-01T14:10:18.328Z,33.92
2022-08-01T14:12:50.859Z,33.15
2022-08-01T14:15:37.714Z,33.13
2022-08-01T14:18:06.193Z,32.43
2022-08-01T14:20:33.932Z,33.04
2022-08-01T14:23:00.623Z,33.07
2022-08-01T14:26:03.531Z,32.82
2022-08-01T14:28:14.275Z,32.77
2022-08-01T14:30:42.384Z,34.01
2022-08-01T14:33:10.638Z,33.18
2022-08-01T14:36:01.256Z,33.86
2022-08-01T14:38:31.373Z,33.95
2022-08-01T14:41:00.403Z,33.25
2022-08-01T14:43:33.090Z,32.23
2022-08-01T14:46:04.685Z,31.50
2022-08-01T14:48:31.822Z,31.31
2022-08-01T14:51:01.451Z,32.03
2022-08-01T14:53:28.357Z,32.04
2022-08-01T14:55:55.198Z,31.59
2022-08-01T14:58:22.096Z,31.19
2022-08-01T15:00:49.099Z,31.78
2022-08-01T15:03:16.055Z,32.21
2022-08-01T15:05:43.053Z,32.97
2022-08-01T15:08:09.945Z,35.25
2022-08-01T15:10:36.768Z,35.45
2022-08-01T15:13:03.680Z,35.11
2022-08-01T15:15:31.065Z,36.31
2022-08-01T15:17:58.182Z,37.44
2022-08-01T15:20:25.672Z,37.30
2022-08-01T15:22:52.969Z,37.98
2022-08-01T15:25:20.182Z,38.54
2022-08-01T15:27:47.053Z,38.54
2022-08-01T15:30:13.966Z,39.14
2022-08-01T15:32:40.780Z,39.15
2022-08-01T15:35:08.293Z,39.25
2022-08-01T15:37:38.426Z,39.44
2022-08-01T15:40:08.698Z,38.83
2022-08-01T15:42:35.889Z,39.55
2022-08-01T15:45:02.752Z,40.38
2022-08-01T15:47:31.149Z,40.37
2022-08-01T15:50:00.607Z,41.40
2022-08-01T15:52:30.935Z,41.07
2022-08-01T15:54:59.014Z,41.08
2022-08-01T15:57:26.199Z,41.76
2022-08-01T15:59:53.228Z,41.82
2022-08-01T16:02:20.188Z,42.23
2022-08-01T16:04:47.217Z,41.74
2022-08-01T16:07:14.243Z,41.80
2022-08-01T16:09:41.141Z,42.08
2022-08-01T16:12:09.093Z,40.02
2022-08-01T16:14:36.131Z,40.14
2022-08-01T16:17:02.975Z,40.53
2022-08-01T16:19:30.014Z,40.53
2022-08-01T16:21:56.898Z,41.40
2022-08-01T16:24:23.968Z,42.52
2022-08-01T16:26:50.844Z,42.40
2022-08-01T16:29:17.687Z,42.82
2022-08-01T16:31:50.760Z,42.76
2022-08-01T16:34:26.191Z,41.48
2022-08-01T16:36:55.460Z,41.97
2022-08-01T16:39:23.706Z,41.83
2022-08-01T16:41:55.106Z,41.71
2022-08-01T16:44:33.985Z,41.96
2022-08-01T16:47:05.683Z,42.43
2022-08-01T16:49:33.223Z,42.01
2022-08-01T16:52:00.306Z,42.63
2022-08-01T16:54:27.728Z,42.93
2022-08-01T16:56:57.315Z,42.84
2022-08-01T16:59:24.934Z,43.60
2022-08-01T17:02:01.365Z,44.15
2022-08-01T17:04:30.164Z,44.64
2022-08-01T17:06:58.147Z,44.46
2022-08-01T17:09:25.093Z,45.13
2022-08-01T17:11:52.112Z,45.26
2022-08-01T17:14:19.234Z,45.40
2022-08-01T17:16:46.637Z,44.96
2022-08-01T17:19:14.735Z,45.68
2022-08-01T17:21:42.510Z,45.49
2022-08-01T17:24:12.359Z,46.45
2022-08-01T17:26:43.679Z,47.07
2022-08-01T17:29:10.544Z,47.41
2022-08-01T17:31:37.363Z,47.82
2022-08-01T17:34:04.239Z,46.67
2022-08-01T17:36:31.119Z,46.22
2022-08-01T17:38:59.410Z,45.04
2022-08-01T17:41:26.711Z,45.53
2022-08-01T17:43:53.744Z,45.72
2022-08-01T17:46:20.794Z,45.16
2022-08-01T17:48:47.645Z,44.58
2022-08-01T17:51:18.233Z,45.25
2022-08-01T17:53:56.793Z,45.48
2022-08-01T17:56:26.230Z,45.93
2022-08-01T17:58:53.480Z,46.96
2022-08-01T18:01:21.361Z,45.90
2022-08-01T18:03:48.845Z,45.97
2022-08-01T18:06:23.357Z,45.69
2022-08-01T18:08:55.357Z,46.40
2022-08-01T18:11:27.132Z,46.63
2022-08-01T18:13:55.436Z,46.50
2022-08-01T18:16:22.512Z,47.38
2022-08-01T18:18:49.710Z,46.45
2022-08-01T18:21:16.568Z,46.91
2022-08-01T18:23:51.102Z,47.28
2022-08-01T18:26:18.754Z,47.04
2022-08-01T18:28:46.701Z,47.62
2022-08-01T18:31:17.517Z,47.39
2022-08-01T18:33:44.721Z,47.20
2022-08-01T18:36:18.353Z,47.37
2022-08-01T18:38:59.538Z,47.43
2022-08-01T18:41:26.761Z,47.14
2022-08-01T18:44:05.495Z,47.14
2022-08-01T18:46:39.338Z,47.32
2022-08-01T18:49:12.895Z,47.65
2022-08-01T18:51:44.853Z,47.56
2022-08-01T18:54:13.067Z,47.50
2022-08-01T18:56:40.223Z,48.36
2022-08-01T18:59:07.241Z,48.25
2022-08-01T19:01:34.181Z,48.66
2022-08-01T19:04:01.364Z,49.15
2022-08-01T19:06:28.415Z,49.22
2022-08-01T19:08:58.381Z,49.97
2022-08-01T19:11:28.634Z,50.66
2022-08-01T19:13:55.388Z,50.84
2022-08-01T19:16:22.676Z,51.40
2022-08-01T19:18:49.516Z,51.54
2022-08-01T19:21:16.496Z,52.16
2022-08-01T19:24:02.124Z,52.35
2022-08-01T19:26:32.685Z,52.99
2022-08-01T19:29:19.029Z,53.10
2022-08-01T19:31:48.969Z,53.59
2022-08-01T19:34:18.712Z,53.95
2022-08-01T19:36:47.728Z,54.02
2022-08-01T19:39:16.930Z,54.69
2022-08-01T19:41:46.246Z,55.13
2022-08-01T19:44:15.655Z,56.05
2022-08-01T19:46:43.729Z,57.31
2022-08-01T19:49:15.596Z,58.63
2022-08-01T19:52:02.499Z,60.00
2022-08-01T19:54:37.525Z,60.96
2022-08-01T19:57:07.083Z,62.81
2022-08-01T19:59:35.914Z,62.17
2022-08-01T20:02:05.052Z,61.19
2022-08-01T20:04:33.804Z,61.06
2022-08-01T20:07:00.852Z,59.26
2022-08-01T20:09:27.926Z,58.53
2022-08-01T20:11:55.131Z,57.64
2022-08-01T20:14:26.544Z,57.32
2022-08-01T20:16:56.104Z,57.25
2022-08-01T20:19:26.766Z,57.29
2022-08-01T20:22:05.938Z,58.90
2022-08-01T20:24:41.970Z,60.83
2022-08-01T20:27:12.607Z,60.51
2022-08-01T20:29:39.944Z,61.46
2022-08-01T20:32:08.180Z,62.92
2022-08-01T20:34:39.877Z,64.05
2022-08-01T20:37:12.968Z,65.13
2022-08-01T20:39:44.202Z,66.18
2022-08-01T20:42:12.469Z,66.25
2022-08-01T20:44:39.935Z,66.86
2022-08-01T20:47:06.852Z,67.39
2022-08-01T20:49:36.309Z,67.62
2022-08-01T20:52:12.039Z,67.96
2022-08-01T20:54:40.977Z,68.58
2022-08-01T20:57:25.766Z,68.87
2022-08-01T21:00:02.147Z,67.03
2022-08-01T21:02:51.439Z,66.46
2022-08-01T21:05:42.043Z,67.55
2022-08-01T21:08:29.037Z,67.59
2022-08-01T21:10:58.163Z,67.40
2022-08-01T21:13:38.311Z,68.01
2022-08-01T21:16:24.181Z,68.14
2022-08-01T21:19:19.646Z,68.58
2022-08-01T21:22:09.589Z,69.45
2022-08-01T21:24:58.260Z,69.88
2022-08-01T21:27:33.101Z,69.65
2022-08-01T21:30:06.782Z,69.37
2022-08-01T21:32:34.966Z,69.91
2022-08-01T21:35:03.696Z,70.48
2022-08-01T21:37:34.163Z,70.25
2022-08-01T21:40:09.469Z,70.91
2022-08-01T21:42:38.631Z,70.93
2022-08-01T21:45:09.571Z,71.72
2022-08-01T21:47:36.956Z,72.59
2022-08-01T21:50:04.958Z,72.55
2022-08-01T21:52:46.890Z,73.23
2022-08-01T21:55:20.037Z,74.00
2022-08-01T21:58:16.528Z,74.17
2022-08-01T22:00:52.254Z,75.00
2022-08-01T22:03:26.427Z,75.28
2022-08-01T22:05:54.085Z,75.84
2022-08-01T22:08:51.304Z,76.36
2022-08-01T22:11:23.993Z,76.21
2022-08-01T22:13:56.780Z,76.11
2022-08-01T22:16:27.010Z,76.21
2022-08-01T22:18:54.357Z,75.36
2022-08-01T22:21:21.880Z,75.76
2022-08-01T22:23:52.232Z,75.67
2022-08-01T22:26:24.672Z,76.33
2022-08-01T22:28:55.848Z,76.46
2022-08-01T22:31:23.195Z,77.05
2022-08-01T22:33:50.787Z,77.67
2022-08-01T22:36:20.142Z,78.76
2022-08-01T22:38:47.461Z,79.47
2022-08-01T22:41:17.629Z,80.27
2022-08-01T22:44:04.122Z,80.95
2022-08-01T22:46:52.245Z,82.14
2022-08-01T22:49:25.238Z,82.74
2022-08-01T22:52:03.205Z,84.14
2022-08-01T22:54:36.478Z,85.01
2022-08-01T22:57:08.721Z,85.46
2022-08-01T22:59:43.440Z,86.51
2022-08-01T23:02:15.378Z,87.01
2022-08-01T23:04:45.596Z,87.64
2022-08-01T23:07:24.307Z,87.97
2022-08-01T23:09:56.982Z,88.75
2022-08-01T23:12:25.665Z,88.69
2022-08-01T23:14:55.180Z,88.57
2022-08-01T23:17:26.385Z,88.04
2022-08-01T23:20:01.348Z,89.04
2022-08-01T23:22:33.585Z,87.87
2022-08-01T23:25:04.257Z,87.08
2022-08-01T23:28:05.541Z,87.37
2022-08-01T23:30:34.849Z,87.39
2022-08-01T23:33:02.526Z,87.51
2022-08-01T23:35:30.112Z,87.92
2022-08-01T23:38:02.272Z,88.65
2022-08-01T23:40:29.843Z,88.34
2022-08-01T23:42:57.978Z,88.92
2022-08-01T23:45:24.779Z,90.17
2022-08-01T23:47:52.270Z,90.63
2022-08-01T23:50:19.589Z,91.12
2022-08-01T23:52:50.559Z,91.25
2022-08-01T23:55:36.836Z,92.25
2022-08-01T23:58:06.768Z,92.86
